Time;durP1;ratioP1;P1;durP2;ratioP2;P2;SDS_P1;SDS_P2;PMS_P1;PMS_P2;Temp;Humidity;BMP_temperature;BMP_pressure;BME280_temperature;BME280_humidity;BME280_pressure;Samples;Min_cycle;Max_cycle;Signal;HPM_P1;HPM_P2
2023/06/01 00:00:49;;;;;;;22.03;6.13;;;;;;;10.02;100.00;101524.22;5043680;28;20151;-75
2023/06/01 00:03:15;;;;;;;19.45;5.55;;;;;;;10.06;100.00;101514.94;5032403;28;20057;-75
2023/06/01 00:05:41;;;;;;;22.65;6.07;;;;;;;10.09;100.00;101506.66;5024070;28;20102;-74
2023/06/01 00:08:06;;;;;;;14.47;5.60;;;;;;;9.91;100.00;101495.00;5025335;28;20740;-75
2023/06/01 00:10:32;;;;;;;39.40;7.45;;;;;;;9.84;100.00;101493.88;5024309;28;20033;-74
2023/06/01 00:12:58;;;;;;;19.48;6.05;;;;;;;9.91;100.00;101514.50;5025700;28;20042;-74
2023/06/01 00:15:23;;;;;;;16.03;6.13;;;;;;;9.99;100.00;101513.81;5038085;28;20026;-75
2023/06/01 00:17:51;;;;;;;21.27;6.30;;;;;;;9.97;100.00;101493.59;5021632;28;20178;-75
2023/06/01 00:20:17;;;;;;;17.38;6.43;;;;;;;9.88;100.00;101484.59;5022496;28;20279;-75
2023/06/01 00:22:43;;;;;;;19.50;6.53;;;;;;;9.83;100.00;101498.38;5028736;28;20021;-74
2023/06/01 00:25:09;;;;;;;15.55;6.13;;;;;;;9.78;100.00;101487.25;5041452;28;20470;-75
2023/06/01 00:27:35;;;;;;;18.55;5.65;;;;;;;9.81;100.00;101488.81;5025197;28;20033;-74
2023/06/01 00:30:01;;;;;;;19.13;5.45;;;;;;;9.86;100.00;101486.59;5023616;28;20384;-74
2023/06/01 00:32:26;;;;;;;14.57;5.63;;;;;;;9.86;100.00;101481.25;5023595;28;20163;-75
2023/06/01 00:34:52;;;;;;;16.88;5.32;;;;;;;9.80;100.00;101487.97;5028559;28;20021;-74
2023/06/01 00:37:17;;;;;;;22.87;5.67;;;;;;;9.77;100.00;101492.75;5028990;28;20777;-75
2023/06/01 00:39:43;;;;;;;18.80;5.57;;;;;;;9.75;100.00;101494.72;5010688;28;20034;-75
2023/06/01 00:42:08;;;;;;;23.53;6.77;;;;;;;9.83;100.00;101484.19;5027124;28;20127;-75
2023/06/01 00:44:34;;;;;;;18.77;7.20;;;;;;;9.77;100.00;101474.09;5027186;28;20053;-75
2023/06/01 00:47:00;;;;;;;15.77;7.27;;;;;;;9.89;100.00;101483.63;5035485;28;20104;-74
2023/06/01 00:49:26;;;;;;;19.58;6.78;;;;;;;9.82;100.00;101469.16;5027164;28;20025;-74
2023/06/01 00:51:52;;;;;;;20.90;7.97;;;;;;;9.69;100.00;101461.44;5010747;28;20080;-74
2023/06/01 00:54:18;;;;;;;;;;;;;;;9.70;100.00;101466.63;5010693;28;20033;-75
2023/06/01 00:56:43;;;;;;;;;;;;;;;9.70;100.00;101471.97;5019274;28;20296;-75
2023/06/01 00:59:09;;;;;;;25.43;6.87;;;;;;;9.77;100.00;101487.44;5036617;28;19909;-74
2023/06/01 01:01:36;;;;;;;22.90;6.60;;;;;;;9.91;100.00;101495.00;5026943;28;20029;-75
2023/06/01 01:04:02;;;;;;;16.52;7.03;;;;;;;9.86;100.00;101481.25;5027701;28;20037;-74
2023/06/01 01:07:20;;;;;;;15.68;6.35;;;;;;;9.96;100.00;101476.75;5034501;28;20083;-74
2023/06/01 01:10:02;;;;;;;27.80;7.53;;;;;;;9.90;100.00;101463.97;5007089;28;20123;-74
2023/06/01 01:12:43;;;;;;;21.73;6.63;;;;;;;9.95;100.00;101456.41;5034904;28;20128;-74
2023/06/01 01:15:25;;;;;;;22.23;7.05;;;;;;;9.86;100.00;101438.59;5026486;28;20040;-75
2023/06/01 01:17:57;;;;;;;18.92;6.63;;;;;;;9.81;100.00;101427.47;5027705;28;20033;-75
2023/06/01 01:20:26;;;;;;;23.05;7.50;;;;;;;9.90;100.00;101434.63;5032816;28;20025;-75
2023/06/01 01:23:11;;;;;;;22.80;6.28;;;;;;;10.02;100.00;101430.84;5027557;28;20649;-74
2023/06/01 01:26:04;;;;;;;21.60;5.88;;;;;;;9.97;100.00;101409.06;5026440;28;20375;-74
2023/06/01 01:28:48;;;;;;;15.77;5.55;;;;;;;10.02;100.00;101421.97;5022292;28;20029;-75
2023/06/01 01:31:18;;;;;;;17.23;6.95;;;;;;;9.93;100.00;101392.53;5019804;28;20044;-75
2023/06/01 01:33:45;;;;;;;13.63;4.60;;;;;;;9.90;100.00;101387.47;5042561;28;20455;-74
2023/06/01 01:36:12;;;;;;;15.25;5.65;;;;;;;9.94;100.00;101396.03;5026581;28;20451;-75
2023/06/01 01:38:38;;;;;;;18.05;7.38;;;;;;;9.95;100.00;101365.72;5026321;28;20029;-74
2023/06/01 01:41:04;;;;;;;16.75;5.53;;;;;;;9.96;100.00;101362.03;5018000;28;20131;-74
2023/06/01 01:43:30;;;;;;;18.30;6.25;;;;;;;10.04;100.00;101362.16;5026562;28;20029;-75
2023/06/01 01:46:18;;;;;;;14.00;5.35;;;;;;;10.06;100.00;101370.03;5026289;28;20049;-75
2023/06/01 01:48:52;;;;;;;15.18;7.28;;;;;;;10.03;100.00;101371.16;5026126;28;20136;-75
2023/06/01 01:51:29;;;;;;;15.55;7.13;;;;;;;9.98;100.00;101335.25;5019217;28;20902;-75
2023/06/01 01:53:55;;;;;;;22.52;6.18;;;;;;;10.07;100.00;101353.88;5025692;28;20037;-75
2023/06/01 01:56:21;;;;;;;;;;;;;;;10.00;100.00;101338.59;5018187;28;20024;-75
2023/06/01 01:58:47;;;;;;;23.23;6.03;;;;;;;9.97;100.00;101322.88;5025861;28;20007;-75
2023/06/01 02:01:16;;;;;;;15.27;7.20;;;;;;;10.05;100.00;101325.69;5009800;28;20049;-74
2023/06/01 02:03:42;;;;;;;19.15;6.55;;;;;;;10.04;100.00;101324.81;5026936;28;20025;-75
2023/06/01 02:06:08;;;;;;;18.17;6.25;;;;;;;9.99;100.00;101289.72;5009510;28;20955;-75
2023/06/01 02:08:33;;;;;;;15.37;6.73;;;;;;;9.84;100.00;101281.38;5009298;28;20371;-74
2023/06/01 02:10:58;;;;;;;15.57;5.50;;;;;;;9.85;100.00;101282.19;5008986;28;20119;-75
2023/06/01 02:13:24;;;;;;;19.00;6.87;;;;;;;9.90;100.00;101295.94;5009025;28;20107;-75
2023/06/01 02:15:49;;;;;;;22.27;5.67;;;;;;;9.87;100.00;101283.72;5025550;28;20430;-75
2023/06/01 02:18:17;;;;;;;17.85;6.53;;;;;;;9.97;100.00;101288.19;5025891;28;20780;-76
2023/06/01 02:20:43;;;;;;;20.85;6.03;;;;;;;9.99;100.00;101292.41;5025575;28;20043;-75
2023/06/01 02:23:09;;;;;;;;;;;;;;;9.99;100.00;101292.41;5029268;28;20025;-75
2023/06/01 02:25:34;;;;;;;;;;;;;;;10.04;100.00;101297.28;5047039;28;19915;-75
2023/06/01 02:28:00;;;;;;;23.47;7.47;;;;;;;10.01;100.00;101285.09;5026597;28;19920;-75
2023/06/01 02:30:25;;;;;;;19.63;7.00;;;;;;;9.91;100.00;101281.63;5026496;28;20021;-75
2023/06/01 02:32:51;;;;;;;24.60;8.60;;;;;;;9.91;100.00;101292.28;5005347;28;20080;-75
2023/06/01 02:35:16;;;;;;;25.37;7.23;;;;;;;9.87;100.00;101274.91;5022918;28;20025;-75
2023/06/01 02:37:42;;;;;;;29.00;7.27;;;;;;;9.95;100.00;101293.69;5007317;28;20041;-75
2023/06/01 02:40:11;;;;;;;23.17;7.50;;;;;;;10.00;100.00;101315.44;5022751;28;20271;-75
2023/06/01 02:42:38;;;;;;;12.85;6.03;;;;;;;10.09;100.00;101322.56;5013259;28;20037;-75
2023/06/01 02:45:08;;;;;;;18.77;8.05;;;;;;;10.06;100.00;101314.84;5006056;28;20017;-75
2023/06/01 02:47:33;;;;;;;17.38;5.68;;;;;;;9.96;100.00;101289.19;5006666;28;20049;-75
2023/06/01 02:49:59;;;;;;;17.90;7.43;;;;;;;10.06;100.00;101300.66;5022784;28;20041;-75
2023/06/01 02:52:24;;;;;;;18.35;6.25;;;;;;;10.09;100.00;101298.56;5022394;28;20113;-75
2023/06/01 02:54:50;;;;;;;21.00;7.25;;;;;;;10.03;100.00;101280.47;5021701;28;20377;-74
2023/06/01 02:57:36;;;;;;;24.58;8.18;;;;;;;9.97;100.00;101265.03;5001991;28;20594;-75
2023/06/01 03:00:04;;;;;;;24.15;6.53;;;;;;;10.07;100.00;101276.53;5005816;28;20040;-76
2023/06/01 03:02:30;;;;;;;17.52;6.70;;;;;;;10.11;100.00;101277.91;5022655;28;20361;-75
2023/06/01 03:04:55;;;;;;;22.30;6.93;;;;;;;10.09;100.00;101274.53;5022219;28;20061;-75
2023/06/01 03:07:21;;;;;;;23.17;7.33;;;;;;;10.12;100.00;101278.75;5023594;28;20029;-75
2023/06/01 03:09:49;;;;;;;13.57;5.75;;;;;;;9.96;100.00;101252.69;5005494;28;20037;-75
2023/06/01 03:12:40;;;;;;;27.00;6.00;;;;;;;10.01;100.00;101245.06;5006305;28;20082;-75
2023/06/01 03:15:06;;;;;;;22.83;7.23;;;;;;;10.03;100.00;101237.78;5006159;28;20045;-75
2023/06/01 03:17:33;;;;;;;18.40;7.20;;;;;;;9.98;100.00;101232.03;5022242;28;20104;-75
2023/06/01 03:20:00;;;;;;;20.75;5.88;;;;;;;10.03;100.00;101250.28;5004821;28;20042;-75
2023/06/01 03:22:25;;;;;;;18.88;6.30;;;;;;;10.02;100.00;101241.44;5005702;28;20488;-76
2023/06/01 03:24:52;;;;;;;13.45;6.05;;;;;;;10.11;100.00;101251.22;5021119;28;20037;-75
2023/06/01 03:27:22;;;;;;;20.33;6.50;;;;;;;10.18;100.00;101250.63;5006425;28;20108;-76
2023/06/01 03:29:48;;;;;;;16.50;6.27;;;;;;;10.20;100.00;101238.81;5004544;28;20124;-75
2023/06/01 03:32:14;;;;;;;18.07;5.83;;;;;;;10.09;100.00;101221.19;5021893;28;20025;-75
2023/06/01 03:34:40;;;;;;;24.92;6.85;;;;;;;10.11;100.00;101235.22;5021255;28;20123;-75
2023/06/01 03:37:07;;;;;;;25.33;9.20;;;;;;;10.11;100.00;101245.91;5021673;28;20025;-75
2023/06/01 03:39:34;;;;;;;18.15;6.50;;;;;;;10.19;100.00;101279.00;5022803;28;20400;-75
2023/06/01 03:42:00;;;;;;;30.75;7.80;;;;;;;10.22;100.00;101273.38;5004219;28;20025;-75
2023/06/01 03:44:26;;;;;;;17.17;7.13;;;;;;;10.20;100.00;101270.00;5021267;28;20029;-75
2023/06/01 03:46:51;;;;;;;16.85;6.03;;;;;;;10.32;100.00;101290.19;5004016;28;20264;-75
2023/06/01 03:49:17;;;;;;;19.43;8.10;;;;;;;10.30;100.00;101289.50;5005355;28;20038;-75
2023/06/01 03:51:42;;;;;;;14.53;5.67;;;;;;;10.32;100.00;101275.03;5004828;28;20128;-75
2023/06/01 03:54:09;;;;;;;18.52;6.68;;;;;;;10.30;100.00;101250.34;5025102;28;20032;-75
2023/06/01 03:56:35;;;;;;;22.13;6.33;;;;;;;10.22;100.00;101252.03;5020891;28;20026;-75
2023/06/01 03:59:01;;;;;;;;;;;;;;;10.27;100.00;101255.06;5022323;28;20056;-75
2023/06/01 04:01:30;;;;;;;21.23;7.40;;;;;;;10.22;100.00;101244.00;5021853;28;19917;-75
2023/06/01 04:03:56;;;;;;;12.45;5.40;;;;;;;10.18;100.00;101192.75;5022167;28;20424;-75
2023/06/01 04:06:23;;;;;;;22.23;8.43;;;;;;;10.26;100.00;101194.69;5021823;28;20017;-76
2023/06/01 04:08:55;;;;;;;26.42;6.10;;;;;;;10.21;100.00;101156.94;5009507;28;20029;-75
2023/06/01 04:11:22;;;;;;;19.75;5.88;;;;;;;10.33;100.00;101167.28;5026765;28;20075;-75
2023/06/01 04:13:48;;;;;;;22.08;5.50;;;;;;;10.37;100.00;101146.47;5007917;28;20120;-75
2023/06/01 04:16:13;;;;;;;18.38;6.28;;;;;;;10.41;100.00;101145.16;5017190;28;20034;-75
2023/06/01 04:18:40;;;;;;;16.38;6.00;;;;;;;10.39;100.00;101149.81;5008746;28;20025;-75
2023/06/01 04:21:08;;;;;;;22.48;6.10;;;;;;;10.49;100.00;101155.94;5025371;28;20028;-75
2023/06/01 04:23:35;;;;;;;15.02;5.00;;;;;;;10.39;100.00;101124.97;5026777;28;20151;-76
2023/06/01 04:26:02;;;;;;;17.10;5.45;;;;;;;10.49;100.00;101129.25;5025476;28;20528;-75
2023/06/01 04:28:29;;;;;;;18.60;5.70;;;;;;;10.38;100.00;101124.13;5008646;28;20021;-75
2023/06/01 04:30:55;;;;;;;19.90;5.90;;;;;;;10.45;100.00;101141.22;5024355;28;20064;-75
2023/06/01 04:33:24;;;;;;;22.73;5.53;;;;;;;10.54;100.00;101167.00;5008794;28;20052;-75
2023/06/01 04:35:54;;;;;;;18.45;5.78;;;;;;;10.57;100.00;101187.22;5024235;28;20064;-75
2023/06/01 04:38:21;;;;;;;17.40;5.60;;;;;;;10.61;100.00;101179.75;5025451;28;20112;-75
2023/06/01 04:40:47;;;;;;;17.20;6.05;;;;;;;10.66;100.00;101148.09;5023497;28;20618;-76
2023/06/01 04:43:18;;;;;;;19.63;5.68;;;;;;;10.82;100.00;101172.28;5024987;28;20226;-75
2023/06/01 04:45:45;;;;;;;22.27;5.38;;;;;;;10.87;100.00;101187.84;5015397;28;20482;-75
2023/06/01 04:48:11;;;;;;;12.60;4.90;;;;;;;10.99;100.00;101205.31;5024749;28;20025;-76
2023/06/01 04:50:47;;;;;;;16.10;5.22;;;;;;;10.90;100.00;101144.78;5008866;28;20108;-76
2023/06/01 04:53:12;;;;;;;17.45;4.97;;;;;;;10.96;100.00;101145.00;5024395;28;20037;-75
2023/06/01 04:55:39;;;;;;;15.05;5.60;;;;;;;10.85;100.00;101136.41;5023873;28;20024;-75
2023/06/01 04:58:05;;;;;;;13.27;4.87;;;;;;;10.74;100.00;101118.75;5025317;28;20413;-75
2023/06/01 05:00:30;;;;;;;;;;;;;;;10.79;100.00;101151.19;5024768;28;20444;-76
2023/06/01 05:02:56;;;;;;;14.63;5.13;;;;;;;10.78;100.00;101120.97;5024560;28;19917;-75
2023/06/01 05:05:21;;;;;;;12.97;4.70;;;;;;;10.97;100.00;101152.00;5024526;28;20024;-75
2023/06/01 05:07:48;;;;;;;22.90;6.32;;;;;;;10.73;100.00;101135.81;5015380;28;20040;-75
2023/06/01 05:10:13;;;;;;;18.10;6.00;;;;;;;10.91;100.00;101155.31;5024513;28;20504;-76
2023/06/01 05:12:43;;;;;;;22.83;6.03;;;;;;;10.89;100.00;101130.59;5031341;28;20557;-76
2023/06/01 05:15:09;;;;;;;17.37;5.77;;;;;;;11.07;100.00;101177.78;5025574;28;20025;-75
2023/06/01 05:17:38;;;;;;;18.70;6.28;;;;;;;11.26;100.00;101204.34;5008156;28;20084;-76
2023/06/01 05:20:08;;;;;;;12.63;5.18;;;;;;;11.16;100.00;101137.63;5007711;28;20021;-76
2023/06/01 05:22:34;;;;;;;29.52;7.97;;;;;;;11.11;100.00;101115.88;5007737;28;20128;-75
2023/06/01 05:25:00;;;;;;;18.85;6.35;;;;;;;11.26;100.00;101113.47;5024446;28;20533;-76
2023/06/01 05:27:26;;;;;;;16.30;5.18;;;;;;;11.22;100.00;101068.53;5024550;28;20409;-76
2023/06/01 05:29:51;;;;;;;18.10;6.33;;;;;;;11.39;100.00;101088.97;5023928;28;20025;-76
2023/06/01 05:32:17;;;;;;;22.90;5.53;;;;;;;11.20;100.00;101063.31;5007773;28;20851;-76
2023/06/01 05:34:42;;;;;;;16.20;5.27;;;;;;;11.41;100.00;101133.28;5007144;28;20141;-76
2023/06/01 05:37:11;;;;;;;15.23;6.40;;;;;;;11.52;100.00;101096.53;5024022;28;20034;-76
2023/06/01 05:39:36;;;;;;;19.40;5.32;;;;;;;11.54;100.00;101078.50;5024287;28;20034;-75
2023/06/01 05:42:02;;;;;;;24.33;5.90;;;;;;;11.49;100.00;101056.78;5006170;28;20036;-75
2023/06/01 05:44:34;;;;;;;25.75;7.57;;;;;;;11.37;100.00;101046.34;5023740;28;20509;-75
2023/06/01 05:47:00;;;;;;;16.58;5.93;;;;;;;11.32;100.00;101115.50;5022258;28;20033;-75
2023/06/01 05:49:25;;;;;;;24.37;5.60;;;;;;;11.03;100.00;101065.06;5023385;28;20473;-75
2023/06/01 05:51:51;;;;;;;11.25;3.92;;;;;;;11.21;100.00;101056.97;5022770;28;20052;-75
2023/06/01 05:54:16;;;;;;;16.10;3.50;;;;;;;11.20;100.00;100993.84;5028739;28;20028;-76
2023/06/01 05:56:42;;;;;;;11.70;2.97;;;;;;;11.90;100.00;101056.94;5028162;28;20033;-75
2023/06/01 05:59:09;;;;;;;12.43;2.83;;;;;;;12.73;100.00;100880.00;5011185;28;20143;-74
2023/06/01 06:01:36;;;;;;;13.35;3.38;;;;;;;11.97;100.00;100620.00;5028528;28;20476;-75
2023/06/01 06:04:01;;;;;;;15.00;4.30;;;;;;;11.79;100.00;100688.91;5022502;28;20042;-75
2023/06/01 06:06:27;;;;;;;16.30;3.33;;;;;;;11.88;100.00;100813.66;5006967;28;20022;-76
2023/06/01 06:08:52;;;;;;;9.25;2.83;;;;;;;11.85;100.00;100840.72;5024219;28;20108;-76
2023/06/01 06:11:18;;;;;;;9.40;3.33;;;;;;;11.63;100.00;100876.97;5024517;28;20075;-75
2023/06/01 06:13:43;;;;;;;11.00;3.25;;;;;;;11.57;100.00;100899.88;5024696;28;20119;-76
2023/06/01 06:16:09;;;;;;;11.87;3.07;;;;;;;11.61;100.00;100889.66;5024598;28;20132;-76
2023/06/01 06:18:35;;;;;;;15.37;2.83;;;;;;;11.44;100.00;100880.81;5023416;28;20017;-75
2023/06/01 06:21:00;;;;;;;11.38;2.92;;;;;;;11.42;100.00;100880.13;5023710;28;20355;-76
2023/06/01 06:23:27;;;;;;;16.33;5.87;;;;;;;11.62;100.00;100931.47;5022961;28;20060;-76
2023/06/01 06:25:53;;;;;;;14.30;3.47;;;;;;;11.69;100.00;100912.94;5006033;28;20226;-75
2023/06/01 06:28:18;;;;;;;15.85;3.03;;;;;;;11.75;100.00;100918.47;5024472;28;20033;-75
2023/06/01 06:30:43;;;;;;;13.30;2.63;;;;;;;11.74;100.00;100865.94;5008131;28;20465;-75
2023/06/01 06:33:09;;;;;;;16.43;3.53;;;;;;;11.87;100.00;100886.00;5008678;28;20400;-75
2023/06/01 06:35:34;;;;;;;11.50;3.00;;;;;;;11.73;100.00;100866.97;5006561;28;20092;-75
2023/06/01 06:38:00;;;;;;;10.83;2.87;;;;;;;12.12;100.00;100893.06;5005758;28;20049;-75
2023/06/01 06:40:25;;;;;;;10.50;3.57;;;;;;;11.97;100.00;100830.53;5023711;28;20029;-75
2023/06/01 06:42:51;;;;;;;9.68;2.78;;;;;;;11.94;100.00;100769.31;5022277;28;20418;-75
2023/06/01 06:45:20;;;;;;;10.70;3.10;;;;;;;11.99;100.00;100767.81;5022782;28;20082;-75
2023/06/01 06:47:46;;;;;;;17.37;3.57;;;;;;;11.92;100.00;100717.84;5022318;28;20026;-75
2023/06/01 06:50:12;;;;;;;12.20;3.58;;;;;;;12.14;100.00;100801.91;5024809;28;20486;-75
2023/06/01 06:52:38;;;;;;;13.85;3.75;;;;;;;11.81;100.00;100725.19;5005849;28;20125;-75
2023/06/01 06:55:04;;;;;;;14.47;3.73;;;;;;;11.80;100.00;100746.78;5023585;28;20182;-75
2023/06/01 06:57:29;;;;;;;14.30;3.00;;;;;;;11.93;100.00;100810.47;5022553;28;20279;-75
2023/06/01 06:59:55;;;;;;;11.90;3.67;;;;;;;12.11;100.00;100859.28;5004988;28;20504;-76
2023/06/01 07:02:20;;;;;;;12.43;3.17;;;;;;;12.15;100.00;100815.13;5006322;28;20422;-75
2023/06/01 07:04:45;;;;;;;16.47;4.63;;;;;;;12.12;100.00;100796.69;5023055;28;20071;-76
2023/06/01 07:07:11;;;;;;;15.67;3.57;;;;;;;12.00;100.00;100729.34;5022104;28;20021;-75
2023/06/01 07:09:36;;;;;;;14.90;4.17;;;;;;;11.93;100.00;100765.81;5022176;28;20435;-75
2023/06/01 07:12:02;;;;;;;12.40;4.43;;;;;;;12.04;100.00;100808.28;5021659;28;20661;-75
2023/06/01 07:14:27;;;;;;;14.53;4.97;;;;;;;11.95;100.00;100734.38;5023743;28;20087;-76
2023/06/01 07:16:52;;;;;;;15.23;4.60;;;;;;;12.32;100.00;100809.72;5022744;28;20108;-75
2023/06/01 07:19:18;;;;;;;25.70;3.53;;;;;;;12.61;100.00;100777.78;5022021;28;20128;-75
2023/06/01 07:21:43;;;;;;;22.17;6.07;;;;;;;12.72;100.00;100692.69;5022577;28;20021;-76
2023/06/01 07:24:09;;;;;;;14.60;3.70;;;;;;;12.54;100.00;100546.50;5023966;28;20405;-76
2023/06/01 07:26:35;;;;;;;14.85;3.95;;;;;;;12.84;100.00;100568.03;5022436;28;20037;-76
2023/06/01 07:29:01;;;;;;;21.05;4.07;;;;;;;12.57;100.00;100497.97;5022681;28;20407;-76
2023/06/01 07:31:27;;;;;;;23.57;3.90;;;;;;;13.06;100.00;100591.25;5023454;28;20029;-76
2023/06/01 07:33:53;;;;;;;;;;;;;;;13.18;100.00;100570.19;5022355;28;20285;-75
2023/06/01 07:36:18;;;;;;;;;;;;;;;13.38;100.00;100447.16;5038946;28;20012;-75
2023/06/01 07:38:45;;;;;;;15.40;3.72;;;;;;;13.65;100.00;100491.22;5004447;28;20393;-75
2023/06/01 07:41:13;;;;;;;;;;;;;;;13.78;100.00;100501.25;5024199;28;20389;-75
2023/06/01 07:43:38;;;;;;;12.02;3.35;;;;;;;13.50;100.00;100471.63;5021340;28;19920;-75
2023/06/01 07:46:04;;;;;;;17.80;4.60;;;;;;;13.50;100.00;100477.81;5022133;28;20026;-75
2023/06/01 07:48:35;;;;;;;12.63;3.30;;;;;;;13.65;100.00;100565.47;5023234;28;20478;-75
2023/06/01 07:51:04;;;;;;;15.07;4.28;;;;;;;13.65;100.00;100590.47;5022134;28;20041;-76
2023/06/01 07:53:31;;;;;;;16.95;4.40;;;;;;;13.70;100.00;100633.66;5023110;28;20017;-76
2023/06/01 07:55:56;;;;;;;15.13;4.43;;;;;;;13.46;100.00;100548.97;5021368;28;20433;-76
2023/06/01 07:58:22;;;;;;;17.08;5.47;;;;;;;13.49;100.00;100673.81;5022187;28;20099;-76
2023/06/01 08:00:48;;;;;;;12.33;3.70;;;;;;;13.90;100.00;100673.34;5022468;28;20550;-76
2023/06/01 08:03:14;;;;;;;18.02;6.00;;;;;;;13.74;100.00;100505.34;5005498;28;20021;-75
2023/06/01 08:05:42;;;;;;;19.80;5.32;;;;;;;14.12;100.00;100623.25;5022928;28;20021;-76
2023/06/01 08:08:08;;;;;;;14.73;4.03;;;;;;;13.86;100.00;100428.72;5023693;28;20029;-75
2023/06/01 08:10:34;;;;;;;;;;;;;;;14.92;100.00;100610.66;5023681;28;20044;-75
2023/06/01 08:12:59;;;;;;;;;;;;;;;15.04;100.00;100415.53;5022346;28;19909;-75
2023/06/01 08:15:28;;;;;;;13.03;3.73;;;;;;;15.22;100.00;100347.75;5023013;28;20492;-75
2023/06/01 08:17:54;;;;;;;19.15;5.60;;;;;;;14.54;100.00;100218.75;5020885;28;20040;-74
2023/06/01 08:20:23;;;;;;;;;;;;;;;15.27;100.00;100313.00;5022234;28;20033;-75
2023/06/01 08:22:50;;;;;;;11.38;3.70;;;;;;;15.32;98.99;100312.41;5022259;28;19914;-75
2023/06/01 08:25:19;;;;;;;19.13;4.15;;;;;;;15.14;100.00;100423.22;5022875;28;20497;-76
2023/06/01 08:27:44;;;;;;;21.60;5.20;;;;;;;15.32;97.88;100278.25;5020977;28;20245;-75
2023/06/01 08:30:13;;;;;;;11.10;4.30;;;;;;;15.02;96.92;100186.38;5017214;28;20029;-76
2023/06/01 08:32:39;;;;;;;12.73;3.47;;;;;;;16.17;95.90;100379.97;5021397;28;20025;-75
2023/06/01 08:35:06;;;;;;;17.23;3.80;;;;;;;15.82;93.56;100159.47;5021368;28;20030;-76
2023/06/01 08:37:31;;;;;;;14.82;3.10;;;;;;;16.18;93.93;100295.47;5022112;28;20021;-75
2023/06/01 08:39:59;;;;;;;11.70;3.33;;;;;;;16.36;91.54;100220.16;5021330;28;20421;-76
2023/06/01 08:42:40;;;;;;;8.85;3.15;;;;;;;15.97;90.15;100038.91;5021920;28;20236;-75
2023/06/01 08:45:06;;;;;;;9.88;3.33;;;;;;;17.13;88.96;100268.75;5038049;28;20029;-76
2023/06/01 08:47:32;;;;;;;12.90;3.00;;;;;;;17.19;86.15;100008.94;5023085;28;20021;-75
2023/06/01 08:49:58;;;;;;;16.50;3.17;;;;;;;17.33;83.12;99836.16;5020672;28;20431;-76
2023/06/01 08:52:28;;;;;;;15.32;4.25;;;;;;;17.05;84.27;99940.03;5022823;28;20100;-75
2023/06/01 08:54:55;;;;;;;12.63;3.22;;;;;;;16.98;83.65;99898.84;5024166;28;20037;-75
2023/06/01 08:57:20;;;;;;;;;;;;;;;16.74;86.19;100152.00;5026733;28;20036;-75
2023/06/01 08:59:46;;;;;;;10.35;2.88;;;;;;;17.58;86.39;100346.06;5025832;28;19913;-75
2023/06/01 09:02:13;;;;;;;14.48;3.60;;;;;;;16.50;84.52;99950.69;5024639;28;20087;-74
2023/06/01 09:04:41;;;;;;;10.95;3.25;;;;;;;16.23;86.45;100123.28;5025818;28;20033;-75
2023/06/01 09:07:07;;;;;;;12.88;2.78;;;;;;;16.13;87.38;100180.28;5008204;28;20024;-75
2023/06/01 09:09:33;;;;;;;16.52;3.78;;;;;;;16.55;87.23;100306.53;5026717;28;20037;-74
2023/06/01 09:12:17;;;;;;;11.50;3.47;;;;;;;16.74;86.20;100308.34;5024285;28;20033;-74
2023/06/01 09:14:42;;;;;;;17.75;3.67;;;;;;;16.34;85.41;100082.19;5026348;28;20572;-75
2023/06/01 09:17:13;;;;;;;16.43;4.07;;;;;;;16.55;86.54;100252.63;5026270;28;20052;-74
2023/06/01 09:19:46;;;;;;;16.05;4.35;;;;;;;17.05;86.69;100431.66;5024500;28;20033;-75
2023/06/01 09:22:13;;;;;;;12.75;3.75;;;;;;;16.74;87.25;100366.78;5020268;28;20112;-75
2023/06/01 09:24:40;;;;;;;11.23;3.45;;;;;;;16.87;86.76;100345.22;5024380;28;20132;-74
2023/06/01 09:27:07;;;;;;;15.55;3.08;;;;;;;16.50;85.41;100182.41;5025719;28;20497;-75
2023/06/01 09:29:32;;;;;;;18.33;3.60;;;;;;;16.60;87.92;100403.72;5026467;28;20026;-75
2023/06/01 09:32:00;;;;;;;17.20;3.80;;;;;;;17.01;85.75;100340.59;5025888;28;20060;-74
2023/06/01 09:34:25;;;;;;;15.65;4.07;;;;;;;17.78;86.40;100565.47;5024113;28;20108;-75
2023/06/01 09:36:53;;;;;;;17.25;4.20;;;;;;;17.48;82.30;100139.59;5025928;28;20514;-75
2023/06/01 09:39:20;;;;;;;11.23;3.33;;;;;;;17.27;83.01;100178.59;5027984;28;20029;-75
2023/06/01 09:41:56;;;;;;;9.45;2.80;;;;;;;17.52;82.83;100239.84;5026683;28;20036;-74
2023/06/01 09:44:32;;;;;;;14.75;3.13;;;;;;;18.04;80.87;100177.47;5007931;28;20433;-75
2023/06/01 09:47:12;;;;;;;10.32;3.47;;;;;;;18.84;80.45;100285.44;5007292;28;20049;-76
2023/06/01 09:49:40;;;;;;;10.13;3.20;;;;;;;18.85;77.39;100038.31;5022823;28;20529;-75
2023/06/01 09:52:06;;;;;;;10.07;3.60;;;;;;;19.06;75.85;99944.06;5025332;28;20018;-75
2023/06/01 09:54:37;;;;;;;15.37;2.90;;;;;;;18.52;76.43;99903.69;5007677;28;20509;-75
2023/06/01 09:57:04;;;;;;;15.30;3.45;;;;;;;17.82;76.65;99781.03;5041299;28;20052;-76
2023/06/01 09:59:38;;;;;;;8.90;3.00;;;;;;;18.87;77.63;100240.88;5023682;28;20025;-76
2023/06/01 10:02:05;;;;;;;23.90;4.07;;;;;;;18.65;73.78;99752.03;5040255;28;20029;-76
2023/06/01 10:04:31;;;;;;;12.18;3.38;;;;;;;19.38;75.52;100169.94;5006705;28;20029;-76
2023/06/01 10:06:57;;;;;;;12.40;3.35;;;;;;;19.91;73.31;100051.72;5023073;28;20050;-76
2023/06/01 10:09:25;;;;;;;;;;;;;;;19.99;72.03;99982.78;5022860;28;20759;-76
2023/06/01 10:11:53;;;;;;;12.60;3.58;;;;;;;18.78;70.12;99464.38;5022530;28;19956;-74
2023/06/01 10:14:20;;;;;;;8.88;2.85;;;;;;;19.73;71.75;100000.44;5025406;28;20052;-75
2023/06/01 10:16:45;;;;;;;;;;;;;;;19.55;70.84;99841.66;5023245;28;20056;-75
2023/06/01 10:19:11;;;;;;;11.68;3.42;;;;;;;20.17;70.33;99958.16;5040556;28;20425;-75
2023/06/01 10:21:39;;;;;;;14.77;3.08;;;;;;;19.12;68.89;99542.75;5041653;28;20094;-74
2023/06/01 10:24:07;;;;;;;15.68;2.90;;;;;;;19.37;69.30;99678.44;5025657;28;20025;-76
2023/06/01 10:26:43;;;;;;;12.15;3.47;;;;;;;19.75;68.17;99655.19;5025910;28;20033;-75
2023/06/01 10:29:09;;;;;;;6.95;2.85;;;;;;;20.57;67.97;99916.53;5026887;28;20037;-74
2023/06/01 10:31:40;;;;;;;13.15;3.58;;;;;;;20.16;66.35;99625.94;5025427;28;20025;-75
2023/06/01 10:34:08;;;;;;;11.77;2.92;;;;;;;19.44;67.48;99544.84;5034218;28;20033;-75
2023/06/01 10:36:52;;;;;;;7.72;2.65;;;;;;;20.77;68.26;100077.97;5026733;28;20018;-75
2023/06/01 10:39:28;;;;;;;12.10;3.20;;;;;;;21.15;67.24;100043.81;5018639;28;20725;-75
2023/06/01 10:41:56;;;;;;;11.57;2.53;;;;;;;20.98;65.99;99838.44;5008108;28;20092;-75
2023/06/01 10:44:39;;;;;;;8.65;2.30;;;;;;;21.43;65.14;99848.19;5025063;28;20013;-75
2023/06/01 10:47:06;;;;;;;13.93;3.38;;;;;;;21.32;65.63;99914.28;5023897;28;20122;-75
2023/06/01 10:49:47;;;;;;;;;;;;;;;20.81;64.23;99534.72;5025550;28;20025;-75
2023/06/01 10:52:33;;;;;;;13.23;3.33;;;;;;;20.82;63.99;99589.78;5018758;28;19956;-75
2023/06/01 10:55:10;;;;;;;7.07;2.53;;;;;;;20.64;62.32;99304.34;5023419;28;20533;-75
2023/06/01 10:57:37;;;;;;;8.90;2.60;;;;;;;20.01;65.70;99558.03;5023071;28;20068;-75
2023/06/01 11:00:14;;;;;;;10.35;2.83;;;;;;;21.83;66.05;100221.88;5022842;28;20021;-76
2023/06/01 11:02:59;;;;;;;6.40;2.08;;;;;;;21.01;64.33;99753.81;5022389;28;20033;-75
2023/06/01 11:05:47;;;;;;;14.95;2.80;;;;;;;21.25;64.08;99778.75;5022515;28;20038;-75
2023/06/01 11:08:14;;;;;;;9.95;2.38;;;;;;;21.70;63.26;99828.34;5018210;28;20091;-75
2023/06/01 11:11:02;;;;;;;12.43;2.83;;;;;;;21.30;63.50;99758.97;5024581;28;20021;-75
2023/06/01 11:13:36;;;;;;;13.82;3.33;;;;;;;21.27;62.52;99583.88;5020940;28;20448;-75
2023/06/01 11:16:04;;;;;;;8.23;2.67;;;;;;;21.89;61.39;99691.03;5022780;28;20088;-76
2023/06/01 11:19:00;;;;;;;12.88;2.63;;;;;;;21.61;60.02;99465.97;5023839;28;20056;-75
2023/06/01 11:21:33;;;;;;;13.18;2.90;;;;;;;21.07;61.44;99467.88;5014905;28;20081;-75
2023/06/01 11:24:01;;;;;;;9.93;2.67;;;;;;;22.74;60.39;99884.03;5022156;28;20416;-75